createdAt,value
2023-12-11T00:01:15.176Z,8.10
2023-12-11T00:03:43.737Z,8.10
2023-12-11T00:06:12.811Z,8.10
2023-12-11T00:08:42.679Z,8.10
2023-12-11T00:11:14.025Z,8.10
2023-12-11T00:13:42.490Z,8.20
2023-12-11T00:16:11.329Z,8.20
2023-12-11T00:18:40.061Z,8.10
2023-12-11T00:21:09.175Z,8.10
2023-12-11T00:23:37.681Z,8.20
2023-12-11T00:26:07.896Z,8.20
2023-12-11T00:28:36.327Z,8.10
2023-12-11T00:31:11.957Z,8.10
2023-12-11T00:33:42.319Z,8.10
2023-12-11T00:36:11.234Z,8.10
2023-12-11T00:38:39.656Z,8.00
2023-12-11T00:41:10.950Z,8.10
2023-12-11T00:43:45.192Z,8.00
2023-12-11T00:46:15.727Z,8.10
2023-12-11T00:48:44.825Z,8.00
2023-12-11T00:51:17.923Z,8.00
2023-12-11T00:53:46.675Z,7.90
2023-12-11T00:56:19.283Z,7.90
2023-12-11T00:58:47.628Z,8.00
2023-12-11T01:01:16.116Z,8.00
2023-12-11T01:03:44.981Z,7.90
2023-12-11T01:06:16.764Z,7.90
2023-12-11T01:08:45.203Z,7.90
2023-12-11T01:11:13.632Z,7.80
2023-12-11T01:13:43.437Z,7.90
2023-12-11T01:16:12.022Z,7.80
2023-12-11T01:18:40.684Z,7.70
2023-12-11T01:21:09.416Z,7.80
2023-12-11T01:23:37.900Z,7.90
2023-12-11T01:26:06.723Z,7.90
2023-12-11T01:28:35.523Z,7.90
2023-12-11T01:31:06.077Z,7.90
2023-12-11T01:33:34.561Z,7.90
2023-12-11T01:36:02.310Z,7.90
2023-12-11T01:38:30.721Z,7.90
2023-12-11T01:40:59.151Z,7.80
2023-12-11T01:43:27.632Z,7.80
2023-12-11T01:46:05.225Z,7.80
2023-12-11T01:48:38.002Z,7.70
2023-12-11T01:51:08.293Z,7.60
2023-12-11T01:53:36.838Z,7.50
2023-12-11T01:56:05.767Z,7.60
2023-12-11T01:58:34.799Z,7.50
2023-12-11T02:01:03.350Z,7.50
2023-12-11T02:03:32.266Z,7.50
2023-12-11T02:06:02.701Z,7.40
2023-12-11T02:08:31.428Z,7.40
2023-12-11T02:11:00.061Z,7.40
2023-12-11T02:13:28.731Z,7.50
2023-12-11T02:15:58.140Z,7.50
2023-12-11T02:18:26.857Z,7.50
2023-12-11T02:20:55.378Z,7.50
2023-12-11T02:23:33.434Z,7.50
2023-12-11T02:26:12.167Z,7.40
2023-12-11T02:28:40.621Z,7.50
2023-12-11T02:31:09.148Z,7.50
2023-12-11T02:33:37.913Z,7.60
2023-12-11T02:36:07.121Z,7.50
2023-12-11T02:38:35.741Z,7.60
2023-12-11T02:41:04.314Z,7.50
2023-12-11T02:43:34.217Z,7.60
2023-12-11T02:46:04.175Z,7.70
2023-12-11T02:48:33.799Z,7.70
2023-12-11T02:51:02.493Z,7.80
2023-12-11T02:53:31.525Z,7.80
2023-12-11T02:56:02.404Z,7.80
2023-12-11T02:58:30.802Z,7.80
2023-12-11T03:01:02.027Z,7.80
2023-12-11T03:03:30.570Z,7.80
2023-12-11T03:05:59.499Z,7.80
2023-12-11T03:08:27.949Z,7.80
2023-12-11T03:10:56.440Z,7.80
2023-12-11T03:13:24.831Z,7.90
2023-12-11T03:15:53.285Z,7.90
2023-12-11T03:18:23.145Z,7.90
2023-12-11T03:20:51.633Z,8.00
2023-12-11T03:23:20.461Z,8.00
2023-12-11T03:25:48.998Z,7.90
2023-12-11T03:28:17.468Z,7.90
2023-12-11T03:30:45.951Z,7.90
2023-12-11T03:33:14.438Z,7.90
2023-12-11T03:35:44.314Z,8.00
2023-12-11T03:38:12.728Z,8.00
2023-12-11T03:40:41.109Z,8.00
2023-12-11T03:43:10.169Z,8.00
2023-12-11T03:45:38.660Z,8.10
2023-12-11T03:48:07.624Z,8.10
2023-12-11T03:50:36.041Z,8.10
2023-12-11T03:53:05.963Z,8.10
2023-12-11T03:55:34.628Z,8.30
2023-12-11T03:58:03.246Z,8.30
2023-12-11T04:00:31.768Z,8.30
2023-12-11T04:03:00.261Z,8.20
2023-12-11T04:05:28.718Z,8.20
2023-12-11T04:07:57.169Z,8.20
2023-12-11T04:10:27.015Z,8.20
2023-12-11T04:12:55.626Z,8.20
2023-12-11T04:15:24.084Z,8.30
2023-12-11T04:17:52.500Z,8.30
2023-12-11T04:20:21.123Z,8.20
2023-12-11T04:22:49.529Z,8.20
2023-12-11T04:25:18.030Z,8.20
2023-12-11T04:27:47.901Z,8.30
2023-12-11T04:30:16.601Z,8.30
2023-12-11T04:32:45.296Z,8.30
2023-12-11T04:35:13.918Z,8.30
2023-12-11T04:37:42.438Z,8.30
2023-12-11T04:40:11.925Z,8.20
2023-12-11T04:42:40.400Z,8.10
2023-12-11T04:45:11.286Z,8.00
2023-12-11T04:47:39.699Z,8.10
2023-12-11T04:50:08.699Z,8.10
2023-12-11T04:52:37.080Z,8.10
2023-12-11T04:55:06.085Z,8.10
2023-12-11T04:57:37.192Z,8.20
2023-12-11T05:00:06.904Z,8.20
2023-12-11T05:02:36.817Z,8.20
2023-12-11T05:05:05.722Z,8.20
2023-12-11T05:07:34.675Z,8.30
2023-12-11T05:10:04.397Z,8.30
2023-12-11T05:12:32.883Z,8.30
2023-12-11T05:15:03.564Z,8.30
2023-12-11T05:17:32.490Z,8.30
2023-12-11T05:20:04.141Z,8.30
2023-12-11T05:22:32.933Z,8.30
2023-12-11T05:25:01.620Z,8.30
2023-12-11T05:27:30.324Z,8.20
2023-12-11T05:29:58.896Z,8.30
2023-12-11T05:32:29.913Z,8.20
2023-12-11T05:34:58.327Z,8.30
2023-12-11T05:37:28.302Z,8.30
2023-12-11T05:40:01.962Z,8.20
2023-12-11T05:42:45.236Z,8.30
2023-12-11T05:45:13.700Z,8.20
2023-12-11T05:47:42.213Z,8.30
2023-12-11T05:50:11.379Z,8.20
2023-12-11T05:52:41.294Z,8.20
2023-12-11T05:55:10.358Z,8.10
2023-12-11T05:57:38.902Z,8.20
2023-12-11T06:00:09.142Z,8.10
2023-12-11T06:02:37.555Z,8.10
2023-12-11T06:05:06.720Z,8.10
2023-12-11T06:07:35.148Z,8.00
2023-12-11T06:10:05.278Z,8.10
2023-12-11T06:12:34.538Z,8.20
2023-12-11T06:15:03.006Z,8.20
2023-12-11T06:17:31.713Z,8.30
2023-12-11T06:20:00.770Z,8.30
2023-12-11T06:22:29.508Z,8.30
2023-12-11T06:24:57.988Z,8.30
2023-12-11T06:27:29.431Z,8.30
2023-12-11T06:29:58.100Z,8.30
2023-12-11T06:32:26.570Z,8.30
2023-12-11T06:34:55.209Z,8.40
2023-12-11T06:37:24.124Z,8.50
2023-12-11T06:39:52.938Z,8.40
2023-12-11T06:42:21.361Z,8.30
2023-12-11T06:44:51.207Z,8.30
2023-12-11T06:47:19.695Z,8.30
2023-12-11T06:49:48.684Z,8.40
2023-12-11T06:52:17.491Z,8.40
2023-12-11T06:54:46.050Z,8.40
2023-12-11T06:57:14.462Z,8.40
2023-12-11T06:59:42.864Z,8.30
2023-12-11T07:02:12.954Z,8.30
2023-12-11T07:04:43.616Z,8.30
2023-12-11T07:07:12.137Z,8.30
2023-12-11T07:09:41.526Z,8.20
2023-12-11T07:12:10.465Z,8.20
2023-12-11T07:14:38.882Z,8.10
2023-12-11T07:17:09.858Z,8.10
2023-12-11T07:19:39.833Z,8.10
2023-12-11T07:22:08.305Z,8.10
2023-12-11T07:24:38.252Z,8.10
2023-12-11T07:27:07.087Z,8.20
2023-12-11T07:29:35.509Z,8.20
2023-12-11T07:32:03.908Z,8.10
2023-12-11T07:34:32.485Z,8.20
2023-12-11T07:37:02.427Z,8.20
2023-12-11T07:39:30.880Z,8.20
2023-12-11T07:41:59.267Z,8.10
2023-12-11T07:44:28.064Z,8.20
2023-12-11T07:46:56.504Z,8.30
2023-12-11T07:49:25.111Z,8.30
2023-12-11T07:51:56.260Z,8.50
2023-12-11T07:54:26.314Z,8.60
2023-12-11T07:56:55.308Z,8.60
2023-12-11T07:59:23.684Z,8.60
2023-12-11T08:01:53.578Z,8.60
2023-12-11T08:04:22.103Z,8.60
2023-12-11T08:06:51.660Z,8.60
2023-12-11T08:09:20.132Z,8.50
2023-12-11T08:11:52.058Z,8.50
2023-12-11T08:14:20.748Z,8.50
2023-12-11T08:16:49.185Z,8.50
2023-12-11T08:19:17.699Z,8.50
2023-12-11T08:21:46.457Z,8.50
2023-12-11T08:24:17.076Z,8.50
2023-12-11T08:26:45.866Z,8.50
2023-12-11T08:29:15.749Z,8.70
2023-12-11T08:31:44.581Z,8.80
2023-12-11T08:34:13.067Z,9.00
2023-12-11T08:36:41.518Z,8.90
2023-12-11T08:39:10.929Z,8.80
2023-12-11T08:41:39.334Z,8.90
2023-12-11T08:44:07.756Z,8.80
2023-12-11T08:46:38.783Z,8.70
2023-12-11T08:49:07.342Z,8.60
2023-12-11T08:51:36.156Z,8.60
2023-12-11T08:54:04.732Z,8.70
2023-12-11T08:56:33.583Z,8.70
2023-12-11T08:59:01.999Z,8.80
2023-12-11T09:01:32.323Z,8.80
2023-12-11T09:04:05.164Z,8.90
2023-12-11T09:06:33.625Z,8.90
2023-12-11T09:09:02.056Z,8.90
2023-12-11T09:11:30.451Z,8.90
2023-12-11T09:13:58.878Z,8.90
2023-12-11T09:16:28.327Z,8.90
2023-12-11T09:18:57.388Z,9.00
2023-12-11T09:21:28.112Z,9.20
2023-12-11T09:23:56.490Z,9.20
2023-12-11T09:26:24.954Z,9.30
2023-12-11T09:28:53.402Z,9.30
2023-12-11T09:31:21.953Z,9.40
2023-12-11T09:33:50.578Z,9.40
2023-12-11T09:36:20.272Z,9.40
2023-12-11T09:38:50.631Z,9.40
2023-12-11T09:41:19.330Z,9.60
2023-12-11T09:43:50.490Z,9.70
2023-12-11T09:46:20.946Z,9.70
2023-12-11T09:48:50.726Z,9.60
2023-12-11T09:51:19.706Z,9.50
2023-12-11T09:53:50.554Z,9.50
2023-12-11T09:56:19.600Z,9.40
2023-12-11T09:58:48.539Z,9.50
2023-12-11T10:01:18.144Z,9.50
2023-12-11T10:03:46.754Z,9.40
2023-12-11T10:06:16.806Z,9.50
2023-12-11T10:08:48.647Z,9.50
2023-12-11T10:11:19.568Z,9.50
2023-12-11T10:13:50.646Z,9.50
2023-12-11T10:16:30.221Z,9.50
2023-12-11T10:18:59.624Z,9.50
2023-12-11T10:21:29.097Z,9.50
2023-12-11T10:24:06.975Z,9.60
2023-12-11T10:26:39.986Z,9.70
2023-12-11T10:29:22.927Z,9.70
2023-12-11T10:31:51.665Z,9.70
2023-12-11T10:34:20.361Z,9.70
2023-12-11T10:36:52.373Z,9.90
2023-12-11T10:39:24.620Z,9.90
2023-12-11T10:41:55.853Z,10.10
2023-12-11T10:44:42.876Z,10.00
2023-12-11T10:47:15.994Z,10.00
2023-12-11T10:49:44.954Z,10.00
2023-12-11T10:52:13.671Z,10.00
2023-12-11T10:54:43.426Z,9.80
2023-12-11T10:57:18.572Z,9.70
2023-12-11T10:59:47.514Z,9.70
2023-12-11T11:02:18.994Z,9.70
2023-12-11T11:04:48.909Z,9.60
2023-12-11T11:07:27.166Z,9.60
2023-12-11T11:10:01.963Z,9.60
2023-12-11T11:12:43.919Z,9.60
2023-12-11T11:15:12.654Z,9.50
2023-12-11T11:18:00.820Z,9.50
2023-12-11T11:20:30.203Z,9.40
2023-12-11T11:23:23.957Z,9.40
2023-12-11T11:25:55.721Z,9.40
2023-12-11T11:28:45.589Z,9.40
2023-12-11T11:31:23.521Z,9.50
2023-12-11T11:33:58.380Z,9.40
2023-12-11T11:36:48.155Z,9.40
2023-12-11T11:39:17.884Z,9.30
2023-12-11T11:41:46.604Z,9.30
2023-12-11T11:44:17.906Z,9.30
2023-12-11T11:46:57.432Z,9.30
2023-12-11T11:49:36.890Z,9.40
2023-12-11T11:52:07.303Z,9.40
2023-12-11T11:54:39.613Z,9.40
2023-12-11T11:57:08.859Z,9.40
2023-12-11T11:59:46.155Z,9.40
2023-12-11T12:02:22.530Z,9.50
2023-12-11T12:04:51.034Z,9.50
2023-12-11T12:07:20.034Z,9.60
2023-12-11T12:09:54.663Z,9.60
2023-12-11T12:12:23.204Z,9.60
2023-12-11T12:15:04.236Z,9.70
2023-12-11T12:17:33.310Z,9.70
2023-12-11T12:20:02.259Z,9.70
2023-12-11T12:22:30.898Z,9.70
2023-12-11T12:24:59.507Z,9.70
2023-12-11T12:27:29.339Z,9.60
2023-12-11T12:29:59.340Z,9.60
2023-12-11T12:32:30.335Z,9.60
2023-12-11T12:34:59.309Z,9.70
2023-12-11T12:37:28.864Z,9.60
2023-12-11T12:39:58.758Z,9.60
2023-12-11T12:42:31.850Z,9.50
2023-12-11T12:45:00.378Z,9.50
2023-12-11T12:47:30.619Z,9.40
2023-12-11T12:49:59.223Z,9.40
2023-12-11T12:52:29.229Z,9.40
2023-12-11T12:54:58.174Z,9.40
2023-12-11T12:57:26.912Z,9.30
2023-12-11T12:59:55.380Z,9.30
2023-12-11T13:02:24.099Z,9.20
2023-12-11T13:04:55.660Z,9.10
2023-12-11T13:07:25.373Z,9.00
2023-12-11T13:09:55.904Z,8.90
2023-12-11T13:12:25.097Z,8.80
2023-12-11T13:14:54.882Z,8.70
2023-12-11T13:17:23.490Z,8.60
2023-12-11T13:19:53.668Z,8.60
2023-12-11T13:22:22.453Z,8.60
2023-12-11T13:24:53.362Z,8.60
2023-12-11T13:27:22.963Z,8.50
2023-12-11T13:29:51.394Z,8.50
2023-12-11T13:32:20.717Z,8.50
2023-12-11T13:34:49.241Z,8.60
2023-12-11T13:37:20.998Z,8.70
2023-12-11T13:39:49.674Z,8.80
2023-12-11T13:42:18.256Z,8.80
2023-12-11T13:44:48.089Z,8.80
2023-12-11T13:47:16.704Z,8.90
2023-12-11T13:49:45.280Z,8.80
2023-12-11T13:52:14.026Z,8.90
2023-12-11T13:54:43.993Z,8.90
2023-12-11T13:57:12.528Z,8.90
2023-12-11T13:59:41.414Z,8.90
2023-12-11T14:02:10.084Z,8.90
2023-12-11T14:04:39.292Z,8.90
2023-12-11T14:07:08.031Z,9.00
2023-12-11T14:09:37.110Z,9.00
2023-12-11T14:12:08.451Z,9.00
2023-12-11T14:14:38.081Z,9.00
2023-12-11T14:17:08.488Z,9.00
2023-12-11T14:19:42.124Z,9.00
2023-12-11T14:22:12.885Z,9.00
2023-12-11T14:24:43.622Z,9.00
2023-12-11T14:27:15.405Z,9.00
2023-12-11T14:29:44.211Z,9.00
2023-12-11T14:32:12.708Z,8.90
2023-12-11T14:34:43.801Z,8.90
2023-12-11T14:37:14.911Z,8.90
2023-12-11T14:39:43.982Z,8.90
2023-12-11T14:42:14.260Z,8.90
2023-12-11T14:44:42.857Z,8.90
2023-12-11T14:47:11.587Z,8.90
2023-12-11T14:49:40.353Z,8.90
2023-12-11T14:52:08.765Z,8.90
2023-12-11T14:54:37.280Z,8.90
2023-12-11T14:57:05.861Z,8.90
2023-12-11T14:59:36.247Z,8.90
2023-12-11T15:02:05.386Z,8.90
2023-12-11T15:04:36.749Z,8.90
2023-12-11T15:07:06.520Z,8.90
2023-12-11T15:09:36.483Z,8.80
2023-12-11T15:12:05.112Z,8.80
2023-12-11T15:14:35.308Z,8.70
2023-12-11T15:17:04.314Z,8.60
2023-12-11T15:19:32.839Z,8.60
2023-12-11T15:22:01.743Z,8.50
2023-12-11T15:24:31.478Z,8.50
2023-12-11T15:26:59.953Z,8.40
2023-12-11T15:29:28.345Z,8.40
2023-12-11T15:31:58.306Z,8.30
2023-12-11T15:34:26.895Z,8.20
2023-12-11T15:36:55.372Z,8.20
2023-12-11T15:39:25.246Z,8.10
2023-12-11T15:41:53.809Z,8.00
2023-12-11T15:44:22.270Z,7.90
2023-12-11T15:46:50.709Z,7.90
2023-12-11T15:49:20.768Z,7.80
2023-12-11T15:51:52.928Z,7.70
2023-12-11T15:54:21.744Z,7.70
2023-12-11T15:56:50.236Z,7.80
2023-12-11T15:59:18.652Z,7.80
2023-12-11T16:01:47.761Z,7.90
2023-12-11T16:04:16.214Z,7.90
2023-12-11T16:06:46.589Z,8.00
2023-12-11T16:09:15.489Z,7.90
2023-12-11T16:11:43.930Z,8.00
2023-12-11T16:14:12.347Z,8.00
2023-12-11T16:16:42.139Z,8.00
2023-12-11T16:19:12.676Z,8.00
2023-12-11T16:21:41.219Z,8.00
2023-12-11T16:24:11.420Z,8.00
2023-12-11T16:26:40.252Z,8.00
2023-12-11T16:29:08.704Z,8.00
2023-12-11T16:31:37.201Z,8.00
2023-12-11T16:34:05.732Z,8.00
2023-12-11T16:36:34.186Z,7.90
2023-12-11T16:39:02.664Z,7.90
2023-12-11T16:41:32.524Z,7.80
2023-12-11T16:44:00.914Z,7.80
2023-12-11T16:46:29.446Z,7.70
2023-12-11T16:48:58.134Z,7.70
2023-12-11T16:51:26.672Z,7.60
2023-12-11T16:53:55.044Z,7.70
2023-12-11T16:56:23.553Z,7.70
2023-12-11T16:58:55.731Z,7.70
2023-12-11T17:01:24.248Z,7.70
2023-12-11T17:03:53.021Z,7.70
2023-12-11T17:06:23.660Z,7.70
2023-12-11T17:08:52.063Z,7.70
2023-12-11T17:11:20.697Z,7.70
2023-12-11T17:13:49.101Z,7.70
2023-12-11T17:16:18.996Z,7.70
2023-12-11T17:18:47.579Z,7.70
2023-12-11T17:21:24.774Z,7.70
2023-12-11T17:27:13.647Z,7.70
2023-12-11T17:29:42.284Z,7.70
2023-12-11T17:32:12.122Z,7.80
2023-12-11T17:34:41.266Z,7.70
2023-12-11T17:37:10.961Z,7.70
2023-12-11T17:39:39.383Z,7.70
2023-12-11T17:42:07.825Z,7.80
2023-12-11T17:44:36.282Z,7.70
2023-12-11T17:47:04.889Z,7.70
2023-12-11T17:49:34.842Z,7.70
2023-12-11T17:52:03.360Z,7.70
2023-12-11T17:54:31.761Z,7.70
2023-12-11T17:57:00.205Z,7.80
2023-12-11T17:59:28.596Z,7.80
2023-12-11T18:01:57.495Z,7.80
2023-12-11T18:04:26.068Z,7.80
2023-12-11T18:06:56.232Z,7.80
2023-12-11T18:09:24.997Z,7.80
2023-12-11T18:11:53.442Z,7.80
2023-12-11T18:14:22.147Z,7.80
2023-12-11T18:16:50.642Z,7.80
2023-12-11T18:19:19.100Z,7.70
2023-12-11T18:21:47.648Z,7.70
2023-12-11T18:24:17.484Z,7.70
2023-12-11T18:26:46.601Z,7.70
2023-12-11T18:29:16.281Z,7.60
2023-12-11T18:31:44.820Z,7.60
2023-12-11T18:34:13.463Z,7.50
2023-12-11T18:36:43.130Z,7.50
2023-12-11T18:39:14.110Z,7.50
2023-12-11T18:41:47.276Z,7.50
2023-12-11T18:44:15.776Z,7.50
2023-12-11T18:46:44.144Z,7.50
2023-12-11T18:49:13.987Z,7.50
2023-12-11T18:51:42.549Z,7.40
2023-12-11T18:54:11.459Z,7.40
2023-12-11T18:56:40.775Z,7.40
2023-12-11T18:59:14.595Z,7.30
2023-12-11T19:01:43.221Z,7.40
2023-12-11T19:04:12.001Z,7.40
2023-12-11T19:06:40.574Z,7.50
2023-12-11T19:09:09.878Z,7.60
2023-12-11T19:11:38.320Z,7.60
2023-12-11T19:14:06.742Z,7.60
2023-12-11T19:16:36.606Z,7.70
2023-12-11T19:19:05.128Z,7.70
2023-12-11T19:21:33.701Z,7.70
2023-12-11T19:24:02.370Z,7.80
2023-12-11T19:26:30.759Z,7.70
2023-12-11T19:28:59.148Z,7.70
2023-12-11T19:31:27.663Z,7.70
2023-12-11T19:33:57.988Z,7.80
2023-12-11T19:36:26.503Z,7.70
2023-12-11T19:38:54.898Z,7.80
2023-12-11T19:41:23.523Z,7.80
2023-12-11T19:43:52.176Z,7.80
2023-12-11T19:46:20.686Z,7.90
2023-12-11T19:48:49.280Z,7.90
2023-12-11T19:51:19.582Z,7.80
2023-12-11T19:53:48.009Z,7.90
2023-12-11T19:56:22.702Z,7.90
2023-12-11T19:58:51.134Z,7.90
2023-12-11T20:01:28.712Z,7.90
2023-12-11T20:03:57.449Z,7.80
2023-12-11T20:06:28.593Z,7.80
2023-12-11T20:08:57.300Z,7.80
2023-12-11T20:11:28.268Z,7.80
2023-12-11T20:13:56.729Z,7.80
2023-12-11T20:16:25.498Z,7.80
2023-12-11T20:18:54.202Z,7.80
2023-12-11T20:21:22.857Z,7.80
2023-12-11T20:23:53.065Z,7.80
2023-12-11T20:26:23.757Z,7.80
2023-12-11T20:28:52.185Z,7.80
2023-12-11T20:31:21.130Z,7.80
2023-12-11T20:33:49.818Z,7.70
2023-12-11T20:36:18.830Z,7.80
2023-12-11T20:38:47.908Z,7.70
2023-12-11T20:41:24.867Z,7.70
2023-12-11T20:43:56.821Z,7.70
2023-12-11T20:46:27.605Z,7.70
2023-12-11T20:48:56.639Z,7.70
2023-12-11T20:51:25.307Z,7.60
2023-12-11T20:53:53.935Z,7.70
2023-12-11T20:56:24.818Z,7.70
2023-12-11T20:58:54.654Z,7.60
2023-12-11T21:01:30.174Z,7.60
2023-12-11T21:03:59.838Z,7.60
2023-12-11T21:06:29.154Z,7.50
2023-12-11T21:08:58.860Z,7.50
2023-12-11T21:11:29.260Z,7.50
2023-12-11T21:13:57.702Z,7.50
2023-12-11T21:16:26.134Z,7.50
2023-12-11T21:18:54.751Z,7.40
2023-12-11T21:21:24.958Z,7.40
2023-12-11T21:23:53.518Z,7.40
2023-12-11T21:26:22.835Z,7.40
2023-12-11T21:28:53.670Z,7.30
2023-12-11T21:31:23.385Z,7.30
2023-12-11T21:33:53.479Z,7.20
2023-12-11T21:36:22.996Z,7.20
2023-12-11T21:38:51.759Z,7.20
2023-12-11T21:41:20.663Z,7.10
2023-12-11T21:43:51.112Z,7.20
2023-12-11T21:46:22.277Z,7.10
2023-12-11T21:48:50.968Z,7.10
2023-12-11T21:51:20.666Z,7.10
2023-12-11T21:53:49.718Z,7.10
2023-12-11T21:56:18.145Z,7.10
2023-12-11T21:58:46.549Z,7.10
2023-12-11T22:01:15.051Z,7.00
2023-12-11T22:03:44.872Z,7.10
2023-12-11T22:06:14.962Z,7.10
2023-12-11T22:08:43.500Z,7.00
2023-12-11T22:11:15.292Z,7.10
2023-12-11T22:13:46.347Z,7.10
2023-12-11T22:16:16.167Z,7.10
2023-12-11T22:18:49.000Z,7.10
2023-12-11T22:21:23.834Z,7.00
2023-12-11T22:23:53.805Z,7.00
2023-12-11T22:26:22.987Z,6.90
2023-12-11T22:28:51.425Z,6.90
2023-12-11T22:31:30.165Z,6.80
2023-12-11T22:34:00.436Z,6.80
2023-12-11T22:36:29.547Z,6.70
2023-12-11T22:38:58.154Z,6.70
2023-12-11T22:41:26.708Z,6.70
2023-12-11T22:43:55.344Z,6.80
2023-12-11T22:46:24.825Z,6.80
2023-12-11T22:48:53.799Z,6.90
2023-12-11T22:51:24.230Z,7.00
2023-12-11T22:53:52.891Z,7.00
2023-12-11T22:56:21.291Z,7.00
2023-12-11T22:58:49.701Z,7.00
2023-12-11T23:01:18.325Z,7.00
2023-12-11T23:03:46.856Z,7.00
2023-12-11T23:06:15.383Z,7.00
2023-12-11T23:08:45.261Z,7.00
2023-12-11T23:11:13.710Z,6.90
2023-12-11T23:13:42.159Z,6.80
2023-12-11T23:16:10.788Z,6.80
2023-12-11T23:18:39.388Z,6.70
2023-12-11T23:21:17.133Z,6.60
2023-12-11T23:23:46.992Z,6.60
2023-12-11T23:26:15.442Z,6.50
2023-12-11T23:28:43.844Z,6.50
2023-12-11T23:31:12.430Z,6.50
2023-12-11T23:33:40.889Z,6.50
2023-12-11T23:36:09.198Z,6.50
2023-12-11T23:38:37.608Z,6.50
2023-12-11T23:41:07.769Z,6.60
2023-12-11T23:43:36.188Z,6.70
2023-12-11T23:46:03.785Z,6.90
2023-12-11T23:48:32.373Z,7.00
2023-12-11T23:51:00.908Z,7.00
2023-12-11T23:53:29.356Z,7.10
2023-12-11T23:55:57.854Z,7.00
2023-12-11T23:58:27.708Z,7.10
